Aultman, Pennsylvania
Current Conditions -  °F | °C
As of 5:15 PM on Friday 31 Oct 2014 (Local Time) from KIDI Reporting Station
Haze Haze  
Wind Chill: 43°   Ceiling: 2600
Heat Index: 43°   Visibility: 2.5mi
Dew Point: 41°   Wind: 0mph
Humidity: 93%   Direction: NA
Pressure: 29.89"   Gusts: NA
Location:  40.56°N, 79.26°W
Report Text: KIDI 312115Z AUTO 00000KT 2 1/2SM BR BKN026 BKN030 OVC039 06/05 A2989 RMK A01
Loading
Personal Weather Stations






























Interactive Weather Map
Tropical Storm Tracking
New forecast layout! Learn more

10-Day Weather Forecast

Advertisements
Track Severe Weather on mobile